sensor_id;sensor_type;location;lat;lon;timestamp;P1;durP1;ratioP1;P2;durP2;ratioP2
25824;SDS011;13658;44.534;18.694;2024-03-07T00:02:19;58.13;;;36.00;;
25824;SDS011;13658;44.534;18.694;2024-03-07T00:04:46;62.38;;;36.42;;
25824;SDS011;13658;44.534;18.694;2024-03-07T00:07:12;59.58;;;35.97;;
25824;SDS011;13658;44.534;18.694;2024-03-07T00:09:38;56.90;;;34.50;;
25824;SDS011;13658;44.534;18.694;2024-03-07T00:12:04;52.17;;;33.53;;
25824;SDS011;13658;44.534;18.694;2024-03-07T00:14:32;54.05;;;32.05;;
25824;SDS011;13658;44.534;18.694;2024-03-07T00:17:00;52.85;;;31.60;;
25824;SDS011;13658;44.534;18.694;2024-03-07T00:19:28;48.80;;;31.17;;
25824;SDS011;13658;44.534;18.694;2024-03-07T00:21:58;46.42;;;29.27;;
25824;SDS011;13658;44.534;18.694;2024-03-07T00:24:24;46.80;;;28.92;;
25824;SDS011;13658;44.534;18.694;2024-03-07T00:26:52;47.85;;;30.17;;
25824;SDS011;13658;44.534;18.694;2024-03-07T00:29:18;47.60;;;28.75;;
25824;SDS011;13658;44.534;18.694;2024-03-07T00:31:45;34.70;;;22.75;;
25824;SDS011;13658;44.534;18.694;2024-03-07T00:34:14;29.73;;;18.45;;
25824;SDS011;13658;44.534;18.694;2024-03-07T00:36:44;23.73;;;16.48;;
25824;SDS011;13658;44.534;18.694;2024-03-07T00:39:10;28.35;;;19.10;;
25824;SDS011;13658;44.534;18.694;2024-03-07T00:41:38;24.77;;;17.02;;
25824;SDS011;13658;44.534;18.694;2024-03-07T00:44:05;26.55;;;17.30;;
25824;SDS011;13658;44.534;18.694;2024-03-07T00:46:37;22.58;;;15.27;;
25824;SDS011;13658;44.534;18.694;2024-03-07T00:49:03;20.00;;;13.85;;
25824;SDS011;13658;44.534;18.694;2024-03-07T00:51:30;21.95;;;14.93;;
25824;SDS011;13658;44.534;18.694;2024-03-07T00:53:56;23.35;;;16.02;;
25824;SDS011;13658;44.534;18.694;2024-03-07T00:56:21;24.65;;;16.42;;
25824;SDS011;13658;44.534;18.694;2024-03-07T00:58:48;25.45;;;15.90;;
25824;SDS011;13658;44.534;18.694;2024-03-07T01:01:14;25.52;;;15.52;;
25824;SDS011;13658;44.534;18.694;2024-03-07T01:03:40;26.30;;;16.75;;
25824;SDS011;13658;44.534;18.694;2024-03-07T01:06:07;23.45;;;16.27;;
25824;SDS011;13658;44.534;18.694;2024-03-07T01:08:35;26.95;;;17.58;;
25824;SDS011;13658;44.534;18.694;2024-03-07T01:11:05;29.15;;;18.20;;
25824;SDS011;13658;44.534;18.694;2024-03-07T01:13:40;26.60;;;17.00;;
25824;SDS011;13658;44.534;18.694;2024-03-07T01:16:07;22.45;;;15.35;;
25824;SDS011;13658;44.534;18.694;2024-03-07T01:18:33;19.75;;;14.18;;
25824;SDS011;13658;44.534;18.694;2024-03-07T01:21:00;20.08;;;13.90;;
25824;SDS011;13658;44.534;18.694;2024-03-07T01:23:26;21.80;;;14.57;;
25824;SDS011;13658;44.534;18.694;2024-03-07T01:25:55;17.30;;;12.27;;
25824;SDS011;13658;44.534;18.694;2024-03-07T01:28:22;17.92;;;11.38;;
25824;SDS011;13658;44.534;18.694;2024-03-07T01:30:49;13.20;;;9.85;;
25824;SDS011;13658;44.534;18.694;2024-03-07T01:33:16;14.73;;;9.27;;
25824;SDS011;13658;44.534;18.694;2024-03-07T01:35:41;14.27;;;9.30;;
25824;SDS011;13658;44.534;18.694;2024-03-07T01:38:07;11.77;;;8.75;;
25824;SDS011;13658;44.534;18.694;2024-03-07T01:40:36;12.82;;;7.97;;
25824;SDS011;13658;44.534;18.694;2024-03-07T01:43:02;12.05;;;8.27;;
25824;SDS011;13658;44.534;18.694;2024-03-07T01:45:28;12.60;;;7.93;;
25824;SDS011;13658;44.534;18.694;2024-03-07T01:47:54;12.82;;;8.65;;
25824;SDS011;13658;44.534;18.694;2024-03-07T01:50:21;12.48;;;8.88;;
25824;SDS011;13658;44.534;18.694;2024-03-07T01:52:47;14.90;;;9.95;;
25824;SDS011;13658;44.534;18.694;2024-03-07T01:55:21;14.52;;;10.05;;
25824;SDS011;13658;44.534;18.694;2024-03-07T01:57:50;15.18;;;10.35;;
25824;SDS011;13658;44.534;18.694;2024-03-07T02:00:16;14.35;;;10.23;;
25824;SDS011;13658;44.534;18.694;2024-03-07T02:02:43;14.50;;;10.30;;
25824;SDS011;13658;44.534;18.694;2024-03-07T02:05:10;13.73;;;9.52;;
25824;SDS011;13658;44.534;18.694;2024-03-07T02:07:36;14.27;;;9.85;;
25824;SDS011;13658;44.534;18.694;2024-03-07T02:10:04;14.27;;;9.48;;
25824;SDS011;13658;44.534;18.694;2024-03-07T02:12:31;15.30;;;10.23;;
25824;SDS011;13658;44.534;18.694;2024-03-07T02:14:57;14.50;;;10.60;;
25824;SDS011;13658;44.534;18.694;2024-03-07T02:17:24;14.80;;;10.43;;
25824;SDS011;13658;44.534;18.694;2024-03-07T02:19:50;14.73;;;9.95;;
25824;SDS011;13658;44.534;18.694;2024-03-07T02:22:17;14.25;;;10.80;;
25824;SDS011;13658;44.534;18.694;2024-03-07T02:24:46;13.68;;;9.63;;
25824;SDS011;13658;44.534;18.694;2024-03-07T02:27:12;14.23;;;10.32;;
25824;SDS011;13658;44.534;18.694;2024-03-07T02:29:42;14.57;;;10.57;;
25824;SDS011;13658;44.534;18.694;2024-03-07T02:32:08;14.68;;;10.30;;
25824;SDS011;13658;44.534;18.694;2024-03-07T02:34:35;15.15;;;10.23;;
25824;SDS011;13658;44.534;18.694;2024-03-07T02:37:01;16.33;;;10.23;;
25824;SDS011;13658;44.534;18.694;2024-03-07T02:39:27;18.35;;;10.98;;
25824;SDS011;13658;44.534;18.694;2024-03-07T02:41:53;15.65;;;10.82;;
25824;SDS011;13658;44.534;18.694;2024-03-07T02:44:19;14.65;;;10.07;;
25824;SDS011;13658;44.534;18.694;2024-03-07T02:46:45;14.05;;;9.85;;
25824;SDS011;13658;44.534;18.694;2024-03-07T02:49:14;14.15;;;9.93;;
25824;SDS011;13658;44.534;18.694;2024-03-07T02:51:40;15.30;;;9.93;;
25824;SDS011;13658;44.534;18.694;2024-03-07T02:54:07;14.60;;;9.55;;
25824;SDS011;13658;44.534;18.694;2024-03-07T02:56:33;14.35;;;9.93;;
25824;SDS011;13658;44.534;18.694;2024-03-07T02:59:00;14.13;;;10.02;;
25824;SDS011;13658;44.534;18.694;2024-03-07T03:01:26;12.55;;;9.40;;
25824;SDS011;13658;44.534;18.694;2024-03-07T03:03:53;13.77;;;9.50;;
25824;SDS011;13658;44.534;18.694;2024-03-07T03:06:19;13.00;;;9.82;;
25824;SDS011;13658;44.534;18.694;2024-03-07T03:08:46;13.73;;;8.85;;
25824;SDS011;13658;44.534;18.694;2024-03-07T03:11:13;13.50;;;8.82;;
25824;SDS011;13658;44.534;18.694;2024-03-07T03:13:39;10.15;;;7.90;;
25824;SDS011;13658;44.534;18.694;2024-03-07T03:16:05;10.88;;;8.05;;
25824;SDS011;13658;44.534;18.694;2024-03-07T03:18:35;10.73;;;7.82;;
25824;SDS011;13658;44.534;18.694;2024-03-07T03:21:01;10.95;;;6.70;;
25824;SDS011;13658;44.534;18.694;2024-03-07T03:23:28;8.02;;;5.85;;
25824;SDS011;13658;44.534;18.694;2024-03-07T03:25:54;7.70;;;5.70;;
25824;SDS011;13658;44.534;18.694;2024-03-07T03:28:20;7.03;;;5.43;;
25824;SDS011;13658;44.534;18.694;2024-03-07T03:30:48;7.13;;;5.15;;
25824;SDS011;13658;44.534;18.694;2024-03-07T03:33:15;5.88;;;4.65;;
25824;SDS011;13658;44.534;18.694;2024-03-07T03:35:41;6.07;;;4.63;;
25824;SDS011;13658;44.534;18.694;2024-03-07T03:38:07;6.95;;;4.60;;
25824;SDS011;13658;44.534;18.694;2024-03-07T03:40:34;8.45;;;4.65;;
25824;SDS011;13658;44.534;18.694;2024-03-07T03:43:00;6.55;;;4.50;;
25824;SDS011;13658;44.534;18.694;2024-03-07T03:45:27;7.05;;;4.20;;
25824;SDS011;13658;44.534;18.694;2024-03-07T03:47:53;5.70;;;4.28;;
25824;SDS011;13658;44.534;18.694;2024-03-07T03:50:19;5.75;;;4.18;;
25824;SDS011;13658;44.534;18.694;2024-03-07T03:52:48;5.45;;;4.20;;
25824;SDS011;13658;44.534;18.694;2024-03-07T03:55:14;5.57;;;3.97;;
25824;SDS011;13658;44.534;18.694;2024-03-07T03:57:42;6.70;;;4.05;;
25824;SDS011;13658;44.534;18.694;2024-03-07T04:00:10;5.47;;;4.10;;
25824;SDS011;13658;44.534;18.694;2024-03-07T04:02:40;6.57;;;4.22;;
25824;SDS011;13658;44.534;18.694;2024-03-07T04:05:07;6.18;;;4.50;;
25824;SDS011;13658;44.534;18.694;2024-03-07T04:07:37;7.22;;;4.60;;
25824;SDS011;13658;44.534;18.694;2024-03-07T04:10:03;5.35;;;3.72;;
25824;SDS011;13658;44.534;18.694;2024-03-07T04:12:33;7.43;;;4.68;;
25824;SDS011;13658;44.534;18.694;2024-03-07T04:15:00;6.80;;;4.35;;
25824;SDS011;13658;44.534;18.694;2024-03-07T04:17:26;7.05;;;5.00;;
25824;SDS011;13658;44.534;18.694;2024-03-07T04:19:52;7.47;;;4.50;;
25824;SDS011;13658;44.534;18.694;2024-03-07T04:22:18;7.53;;;4.80;;
25824;SDS011;13658;44.534;18.694;2024-03-07T04:24:45;6.60;;;4.28;;
25824;SDS011;13658;44.534;18.694;2024-03-07T04:27:11;6.97;;;4.63;;
25824;SDS011;13658;44.534;18.694;2024-03-07T04:29:37;6.80;;;4.55;;
25824;SDS011;13658;44.534;18.694;2024-03-07T04:32:03;7.22;;;4.70;;
25824;SDS011;13658;44.534;18.694;2024-03-07T04:34:30;7.32;;;4.30;;
25824;SDS011;13658;44.534;18.694;2024-03-07T04:36:56;7.57;;;4.55;;
25824;SDS011;13658;44.534;18.694;2024-03-07T04:39:27;7.88;;;4.47;;
25824;SDS011;13658;44.534;18.694;2024-03-07T04:42:02;7.60;;;4.75;;
25824;SDS011;13658;44.534;18.694;2024-03-07T04:44:28;6.88;;;4.82;;
25824;SDS011;13658;44.534;18.694;2024-03-07T04:46:55;6.85;;;4.43;;
25824;SDS011;13658;44.534;18.694;2024-03-07T04:49:29;7.50;;;4.65;;
25824;SDS011;13658;44.534;18.694;2024-03-07T04:51:56;7.32;;;4.50;;
25824;SDS011;13658;44.534;18.694;2024-03-07T04:54:25;9.73;;;5.28;;
25824;SDS011;13658;44.534;18.694;2024-03-07T04:56:52;8.48;;;5.78;;
25824;SDS011;13658;44.534;18.694;2024-03-07T04:59:19;8.15;;;5.63;;
25824;SDS011;13658;44.534;18.694;2024-03-07T05:01:46;7.40;;;5.55;;
25824;SDS011;13658;44.534;18.694;2024-03-07T05:04:13;9.02;;;6.38;;
25824;SDS011;13658;44.534;18.694;2024-03-07T05:06:40;10.90;;;6.53;;
25824;SDS011;13658;44.534;18.694;2024-03-07T05:09:07;10.07;;;6.78;;
25824;SDS011;13658;44.534;18.694;2024-03-07T05:11:34;10.48;;;7.07;;
25824;SDS011;13658;44.534;18.694;2024-03-07T05:14:01;11.60;;;7.95;;
25824;SDS011;13658;44.534;18.694;2024-03-07T05:16:28;15.23;;;8.55;;
25824;SDS011;13658;44.534;18.694;2024-03-07T05:18:55;12.55;;;8.18;;
25824;SDS011;13658;44.534;18.694;2024-03-07T05:21:24;14.57;;;9.05;;
25824;SDS011;13658;44.534;18.694;2024-03-07T05:23:57;13.93;;;9.68;;
25824;SDS011;13658;44.534;18.694;2024-03-07T05:26:24;12.23;;;8.82;;
25824;SDS011;13658;44.534;18.694;2024-03-07T05:28:51;13.90;;;8.75;;
25824;SDS011;13658;44.534;18.694;2024-03-07T05:31:19;14.40;;;10.20;;
25824;SDS011;13658;44.534;18.694;2024-03-07T05:33:46;14.38;;;10.55;;
25824;SDS011;13658;44.534;18.694;2024-03-07T05:36:12;16.95;;;9.55;;
25824;SDS011;13658;44.534;18.694;2024-03-07T05:38:42;16.20;;;10.30;;
25824;SDS011;13658;44.534;18.694;2024-03-07T05:41:11;14.73;;;10.40;;
25824;SDS011;13658;44.534;18.694;2024-03-07T05:43:37;16.45;;;10.00;;
25824;SDS011;13658;44.534;18.694;2024-03-07T05:46:04;17.38;;;10.82;;
25824;SDS011;13658;44.534;18.694;2024-03-07T05:48:35;16.05;;;11.40;;
25824;SDS011;13658;44.534;18.694;2024-03-07T05:51:00;17.90;;;11.70;;
25824;SDS011;13658;44.534;18.694;2024-03-07T05:53:26;18.85;;;9.98;;
25824;SDS011;13658;44.534;18.694;2024-03-07T05:55:53;23.55;;;13.52;;
25824;SDS011;13658;44.534;18.694;2024-03-07T05:58:19;18.75;;;11.93;;
25824;SDS011;13658;44.534;18.694;2024-03-07T06:00:45;17.58;;;11.45;;
25824;SDS011;13658;44.534;18.694;2024-03-07T06:03:16;17.48;;;11.98;;
25824;SDS011;13658;44.534;18.694;2024-03-07T06:05:48;16.45;;;11.13;;
25824;SDS011;13658;44.534;18.694;2024-03-07T06:08:14;18.05;;;12.07;;
25824;SDS011;13658;44.534;18.694;2024-03-07T06:10:44;23.15;;;11.43;;
25824;SDS011;13658;44.534;18.694;2024-03-07T06:13:10;24.40;;;12.80;;
25824;SDS011;13658;44.534;18.694;2024-03-07T06:15:44;20.38;;;12.73;;
25824;SDS011;13658;44.534;18.694;2024-03-07T06:18:11;19.83;;;11.75;;
25824;SDS011;13658;44.534;18.694;2024-03-07T06:20:41;20.27;;;11.68;;
25824;SDS011;13658;44.534;18.694;2024-03-07T06:23:08;27.30;;;14.65;;
25824;SDS011;13658;44.534;18.694;2024-03-07T06:25:36;25.63;;;14.85;;
25824;SDS011;13658;44.534;18.694;2024-03-07T06:28:12;16.55;;;10.40;;
25824;SDS011;13658;44.534;18.694;2024-03-07T06:30:43;33.80;;;21.88;;
25824;SDS011;13658;44.534;18.694;2024-03-07T06:33:10;19.33;;;11.63;;
25824;SDS011;13658;44.534;18.694;2024-03-07T06:35:37;19.20;;;11.75;;
25824;SDS011;13658;44.534;18.694;2024-03-07T06:40:39;22.13;;;12.10;;
25824;SDS011;13658;44.534;18.694;2024-03-07T06:43:07;21.45;;;13.30;;
25824;SDS011;13658;44.534;18.694;2024-03-07T06:45:37;22.20;;;13.88;;
25824;SDS011;13658;44.534;18.694;2024-03-07T06:48:07;20.30;;;13.38;;
25824;SDS011;13658;44.534;18.694;2024-03-07T06:50:33;21.10;;;12.80;;
25824;SDS011;13658;44.534;18.694;2024-03-07T06:53:00;24.67;;;14.85;;
25824;SDS011;13658;44.534;18.694;2024-03-07T06:55:26;29.25;;;16.10;;
25824;SDS011;13658;44.534;18.694;2024-03-07T06:57:53;27.70;;;16.33;;
25824;SDS011;13658;44.534;18.694;2024-03-07T07:00:21;28.77;;;17.45;;
25824;SDS011;13658;44.534;18.694;2024-03-07T07:02:48;24.92;;;15.05;;
25824;SDS011;13658;44.534;18.694;2024-03-07T07:05:15;24.90;;;15.45;;
25824;SDS011;13658;44.534;18.694;2024-03-07T07:07:49;26.13;;;14.70;;
25824;SDS011;13658;44.534;18.694;2024-03-07T07:10:18;23.58;;;15.25;;
25824;SDS011;13658;44.534;18.694;2024-03-07T07:12:46;27.95;;;18.48;;
25824;SDS011;13658;44.534;18.694;2024-03-07T07:15:14;26.33;;;17.15;;
25824;SDS011;13658;44.534;18.694;2024-03-07T07:17:41;21.55;;;14.57;;
25824;SDS011;13658;44.534;18.694;2024-03-07T07:20:10;25.40;;;15.70;;
25824;SDS011;13658;44.534;18.694;2024-03-07T07:22:39;25.23;;;15.20;;
25824;SDS011;13658;44.534;18.694;2024-03-07T07:25:06;22.75;;;14.00;;
25824;SDS011;13658;44.534;18.694;2024-03-07T07:27:42;25.83;;;15.32;;
25824;SDS011;13658;44.534;18.694;2024-03-07T07:30:10;29.33;;;16.40;;
25824;SDS011;13658;44.534;18.694;2024-03-07T07:32:37;28.20;;;15.15;;
25824;SDS011;13658;44.534;18.694;2024-03-07T07:35:04;20.88;;;13.05;;
25824;SDS011;13658;44.534;18.694;2024-03-07T07:37:44;25.63;;;14.45;;
25824;SDS011;13658;44.534;18.694;2024-03-07T07:40:11;25.73;;;15.68;;
25824;SDS011;13658;44.534;18.694;2024-03-07T07:42:40;24.45;;;13.98;;
25824;SDS011;13658;44.534;18.694;2024-03-07T07:45:10;27.48;;;15.10;;
25824;SDS011;13658;44.534;18.694;2024-03-07T07:47:39;26.92;;;16.48;;
25824;SDS011;13658;44.534;18.694;2024-03-07T07:50:10;29.40;;;17.10;;
25824;SDS011;13658;44.534;18.694;2024-03-07T07:52:48;28.38;;;16.70;;
25824;SDS011;13658;44.534;18.694;2024-03-07T07:55:20;22.88;;;15.05;;
25824;SDS011;13658;44.534;18.694;2024-03-07T07:57:47;23.58;;;14.32;;
25824;SDS011;13658;44.534;18.694;2024-03-07T08:00:23;21.58;;;13.98;;
25824;SDS011;13658;44.534;18.694;2024-03-07T08:02:57;27.65;;;16.45;;
25824;SDS011;13658;44.534;18.694;2024-03-07T08:05:31;28.67;;;17.00;;
25824;SDS011;13658;44.534;18.694;2024-03-07T08:07:59;31.73;;;18.55;;
25824;SDS011;13658;44.534;18.694;2024-03-07T08:10:32;30.25;;;17.55;;
25824;SDS011;13658;44.534;18.694;2024-03-07T08:13:00;34.85;;;19.75;;
25824;SDS011;13658;44.534;18.694;2024-03-07T08:15:28;40.15;;;22.70;;
25824;SDS011;13658;44.534;18.694;2024-03-07T08:17:55;33.70;;;20.80;;
25824;SDS011;13658;44.534;18.694;2024-03-07T08:20:22;33.08;;;19.58;;
25824;SDS011;13658;44.534;18.694;2024-03-07T08:22:50;28.63;;;18.10;;
25824;SDS011;13658;44.534;18.694;2024-03-07T08:25:18;27.27;;;17.60;;
25824;SDS011;13658;44.534;18.694;2024-03-07T08:27:46;26.50;;;16.27;;
25824;SDS011;13658;44.534;18.694;2024-03-07T08:30:14;23.90;;;15.00;;
25824;SDS011;13658;44.534;18.694;2024-03-07T08:32:44;26.90;;;15.10;;
25824;SDS011;13658;44.534;18.694;2024-03-07T08:35:11;25.40;;;13.75;;
25824;SDS011;13658;44.534;18.694;2024-03-07T08:37:38;27.25;;;15.60;;
25824;SDS011;13658;44.534;18.694;2024-03-07T08:40:07;32.92;;;16.98;;
25824;SDS011;13658;44.534;18.694;2024-03-07T08:42:36;27.23;;;15.90;;
25824;SDS011;13658;44.534;18.694;2024-03-07T08:45:03;27.67;;;16.38;;
25824;SDS011;13658;44.534;18.694;2024-03-07T08:47:36;35.75;;;19.23;;
25824;SDS011;13658;44.534;18.694;2024-03-07T08:50:03;41.72;;;21.75;;
25824;SDS011;13658;44.534;18.694;2024-03-07T08:52:36;48.35;;;27.35;;
25824;SDS011;13658;44.534;18.694;2024-03-07T08:55:03;53.67;;;29.38;;
25824;SDS011;13658;44.534;18.694;2024-03-07T08:57:30;52.30;;;28.83;;
25824;SDS011;13658;44.534;18.694;2024-03-07T08:59:56;56.88;;;30.20;;
25824;SDS011;13658;44.534;18.694;2024-03-07T09:02:22;49.78;;;26.35;;
25824;SDS011;13658;44.534;18.694;2024-03-07T09:04:48;49.90;;;24.95;;
25824;SDS011;13658;44.534;18.694;2024-03-07T09:07:15;57.65;;;28.73;;
25824;SDS011;13658;44.534;18.694;2024-03-07T09:09:41;45.13;;;24.85;;
25824;SDS011;13658;44.534;18.694;2024-03-07T09:12:11;49.60;;;26.42;;
25824;SDS011;13658;44.534;18.694;2024-03-07T09:14:37;49.78;;;25.92;;
25824;SDS011;13658;44.534;18.694;2024-03-07T09:17:03;49.75;;;27.05;;
25824;SDS011;13658;44.534;18.694;2024-03-07T09:19:30;39.50;;;23.80;;
25824;SDS011;13658;44.534;18.694;2024-03-07T09:21:56;37.88;;;22.83;;
25824;SDS011;13658;44.534;18.694;2024-03-07T09:24:22;36.47;;;20.83;;
25824;SDS011;13658;44.534;18.694;2024-03-07T09:26:51;36.47;;;22.25;;
25824;SDS011;13658;44.534;18.694;2024-03-07T09:29:18;37.67;;;22.10;;
25824;SDS011;13658;44.534;18.694;2024-03-07T09:31:45;33.58;;;20.35;;
25824;SDS011;13658;44.534;18.694;2024-03-07T09:34:12;33.97;;;20.77;;
25824;SDS011;13658;44.534;18.694;2024-03-07T09:36:38;40.05;;;23.50;;
25824;SDS011;13658;44.534;18.694;2024-03-07T09:39:07;38.92;;;23.08;;
25824;SDS011;13658;44.534;18.694;2024-03-07T09:41:34;38.97;;;23.20;;
25824;SDS011;13658;44.534;18.694;2024-03-07T09:44:00;36.75;;;21.98;;
25824;SDS011;13658;44.534;18.694;2024-03-07T09:46:28;35.90;;;20.50;;
25824;SDS011;13658;44.534;18.694;2024-03-07T09:48:54;28.60;;;18.25;;
25824;SDS011;13658;44.534;18.694;2024-03-07T09:51:21;26.92;;;16.38;;
25824;SDS011;13658;44.534;18.694;2024-03-07T09:53:48;27.85;;;17.75;;
25824;SDS011;13658;44.534;18.694;2024-03-07T09:56:21;29.83;;;17.85;;
25824;SDS011;13658;44.534;18.694;2024-03-07T09:58:51;32.13;;;19.10;;
25824;SDS011;13658;44.534;18.694;2024-03-07T10:01:22;31.80;;;18.58;;
25824;SDS011;13658;44.534;18.694;2024-03-07T10:03:58;26.00;;;16.15;;
25824;SDS011;13658;44.534;18.694;2024-03-07T10:06:28;31.75;;;18.50;;
25824;SDS011;13658;44.534;18.694;2024-03-07T10:08:55;30.25;;;18.50;;
25824;SDS011;13658;44.534;18.694;2024-03-07T10:11:22;33.67;;;18.85;;
25824;SDS011;13658;44.534;18.694;2024-03-07T10:13:49;29.20;;;17.15;;
25824;SDS011;13658;44.534;18.694;2024-03-07T10:16:17;32.17;;;18.98;;
25824;SDS011;13658;44.534;18.694;2024-03-07T10:18:44;32.75;;;18.30;;
25824;SDS011;13658;44.534;18.694;2024-03-07T10:21:14;32.25;;;17.42;;
25824;SDS011;13658;44.534;18.694;2024-03-07T10:23:42;31.25;;;17.40;;
25824;SDS011;13658;44.534;18.694;2024-03-07T10:26:08;35.55;;;18.23;;
25824;SDS011;13658;44.534;18.694;2024-03-07T10:28:35;32.20;;;18.40;;
25824;SDS011;13658;44.534;18.694;2024-03-07T10:31:03;39.47;;;23.45;;
25824;SDS011;13658;44.534;18.694;2024-03-07T10:33:37;35.17;;;21.48;;
25824;SDS011;13658;44.534;18.694;2024-03-07T10:36:04;38.00;;;22.00;;
25824;SDS011;13658;44.534;18.694;2024-03-07T10:38:38;35.30;;;20.52;;
25824;SDS011;13658;44.534;18.694;2024-03-07T10:41:04;34.28;;;20.92;;
25824;SDS011;13658;44.534;18.694;2024-03-07T10:43:35;29.45;;;18.48;;
25824;SDS011;13658;44.534;18.694;2024-03-07T10:46:05;32.50;;;19.65;;
25824;SDS011;13658;44.534;18.694;2024-03-07T10:48:32;35.80;;;20.08;;
25824;SDS011;13658;44.534;18.694;2024-03-07T10:51:53;37.83;;;21.93;;
25824;SDS011;13658;44.534;18.694;2024-03-07T10:59:16;42.67;;;23.23;;
25824;SDS011;13658;44.534;18.694;2024-03-07T11:01:53;35.33;;;20.98;;
25824;SDS011;13658;44.534;18.694;2024-03-07T11:04:39;42.80;;;24.25;;
25824;SDS011;13658;44.534;18.694;2024-03-07T11:07:05;46.13;;;25.88;;
25824;SDS011;13658;44.534;18.694;2024-03-07T11:09:32;48.80;;;26.67;;
25824;SDS011;13658;44.534;18.694;2024-03-07T11:12:00;51.65;;;28.38;;
25824;SDS011;13658;44.534;18.694;2024-03-07T11:14:32;53.22;;;28.70;;
25824;SDS011;13658;44.534;18.694;2024-03-07T11:17:00;53.70;;;28.05;;
25824;SDS011;13658;44.534;18.694;2024-03-07T11:19:31;46.25;;;27.05;;
25824;SDS011;13658;44.534;18.694;2024-03-07T11:22:01;57.97;;;29.40;;
25824;SDS011;13658;44.534;18.694;2024-03-07T11:24:40;55.90;;;28.70;;
25824;SDS011;13658;44.534;18.694;2024-03-07T11:27:11;59.13;;;30.13;;
25824;SDS011;13658;44.534;18.694;2024-03-07T11:32:11;65.28;;;32.35;;
25824;SDS011;13658;44.534;18.694;2024-03-07T11:34:39;61.15;;;30.08;;
25824;SDS011;13658;44.534;18.694;2024-03-07T11:37:16;63.88;;;31.92;;
25824;SDS011;13658;44.534;18.694;2024-03-07T11:42:26;59.53;;;30.52;;
25824;SDS011;13658;44.534;18.694;2024-03-07T11:44:55;61.42;;;30.17;;
25824;SDS011;13658;44.534;18.694;2024-03-07T11:47:22;67.53;;;31.67;;
25824;SDS011;13658;44.534;18.694;2024-03-07T11:49:50;75.75;;;34.63;;
25824;SDS011;13658;44.534;18.694;2024-03-07T11:52:18;74.45;;;36.85;;
25824;SDS011;13658;44.534;18.694;2024-03-07T11:54:44;67.40;;;34.28;;
25824;SDS011;13658;44.534;18.694;2024-03-07T11:57:16;69.40;;;35.97;;
25824;SDS011;13658;44.534;18.694;2024-03-07T11:59:44;68.40;;;34.10;;
25824;SDS011;13658;44.534;18.694;2024-03-07T12:02:17;66.70;;;33.40;;
25824;SDS011;13658;44.534;18.694;2024-03-07T12:04:49;60.38;;;31.83;;
25824;SDS011;13658;44.534;18.694;2024-03-07T12:07:15;59.78;;;31.92;;
25824;SDS011;13658;44.534;18.694;2024-03-07T12:09:48;60.42;;;31.70;;
25824;SDS011;13658;44.534;18.694;2024-03-07T12:12:19;63.10;;;32.67;;
25824;SDS011;13658;44.534;18.694;2024-03-07T12:14:53;65.78;;;33.47;;
25824;SDS011;13658;44.534;18.694;2024-03-07T12:17:23;64.10;;;33.20;;
25824;SDS011;13658;44.534;18.694;2024-03-07T12:19:50;58.47;;;32.08;;
25824;SDS011;13658;44.534;18.694;2024-03-07T12:22:18;63.13;;;34.10;;
25824;SDS011;13658;44.534;18.694;2024-03-07T12:24:59;60.08;;;32.70;;
25824;SDS011;13658;44.534;18.694;2024-03-07T12:27:33;55.65;;;32.25;;
25824;SDS011;13658;44.534;18.694;2024-03-07T12:29:59;55.08;;;30.92;;
25824;SDS011;13658;44.534;18.694;2024-03-07T12:32:33;50.45;;;29.40;;
25824;SDS011;13658;44.534;18.694;2024-03-07T12:34:59;54.45;;;31.65;;
25824;SDS011;13658;44.534;18.694;2024-03-07T12:37:25;53.30;;;30.52;;
25824;SDS011;13658;44.534;18.694;2024-03-07T12:39:54;52.88;;;29.73;;
25824;SDS011;13658;44.534;18.694;2024-03-07T12:42:27;53.25;;;29.77;;
25824;SDS011;13658;44.534;18.694;2024-03-07T12:44:55;53.08;;;30.58;;
25824;SDS011;13658;44.534;18.694;2024-03-07T12:47:24;51.63;;;30.35;;
25824;SDS011;13658;44.534;18.694;2024-03-07T12:49:51;53.85;;;31.50;;
25824;SDS011;13658;44.534;18.694;2024-03-07T12:52:17;56.88;;;32.65;;
25824;SDS011;13658;44.534;18.694;2024-03-07T12:54:43;64.70;;;35.70;;
25824;SDS011;13658;44.534;18.694;2024-03-07T12:57:09;54.85;;;32.15;;
25824;SDS011;13658;44.534;18.694;2024-03-07T12:59:39;59.15;;;32.22;;
25824;SDS011;13658;44.534;18.694;2024-03-07T13:02:09;59.50;;;34.00;;
25824;SDS011;13658;44.534;18.694;2024-03-07T13:04:37;65.00;;;33.75;;
25824;SDS011;13658;44.534;18.694;2024-03-07T13:07:04;61.45;;;34.90;;
25824;SDS011;13658;44.534;18.694;2024-03-07T13:09:30;64.55;;;35.28;;
25824;SDS011;13658;44.534;18.694;2024-03-07T13:11:58;60.47;;;33.10;;
25824;SDS011;13658;44.534;18.694;2024-03-07T13:14:29;58.88;;;33.38;;
25824;SDS011;13658;44.534;18.694;2024-03-07T13:16:58;61.80;;;34.13;;
25824;SDS011;13658;44.534;18.694;2024-03-07T13:19:26;66.03;;;36.47;;
25824;SDS011;13658;44.534;18.694;2024-03-07T13:21:52;61.72;;;34.90;;
25824;SDS011;13658;44.534;18.694;2024-03-07T13:24:19;55.45;;;31.30;;
25824;SDS011;13658;44.534;18.694;2024-03-07T13:26:46;58.88;;;32.50;;
25824;SDS011;13658;44.534;18.694;2024-03-07T13:29:15;54.10;;;30.90;;
25824;SDS011;13658;44.534;18.694;2024-03-07T13:31:44;60.05;;;32.55;;
25824;SDS011;13658;44.534;18.694;2024-03-07T13:34:11;58.10;;;33.25;;
25824;SDS011;13658;44.534;18.694;2024-03-07T13:36:40;61.72;;;35.00;;
25824;SDS011;13658;44.534;18.694;2024-03-07T13:39:07;57.63;;;33.72;;
25824;SDS011;13658;44.534;18.694;2024-03-07T13:41:46;60.25;;;33.20;;
25824;SDS011;13658;44.534;18.694;2024-03-07T13:44:13;51.03;;;29.77;;
25824;SDS011;13658;44.534;18.694;2024-03-07T13:46:40;54.33;;;29.38;;
25824;SDS011;13658;44.534;18.694;2024-03-07T13:49:06;52.20;;;29.35;;
25824;SDS011;13658;44.534;18.694;2024-03-07T13:51:37;51.95;;;29.00;;
25824;SDS011;13658;44.534;18.694;2024-03-07T13:54:21;49.42;;;26.92;;
25824;SDS011;13658;44.534;18.694;2024-03-07T13:57:32;48.58;;;27.58;;
25824;SDS011;13658;44.534;18.694;2024-03-07T14:03:31;48.35;;;27.65;;
25824;SDS011;13658;44.534;18.694;2024-03-07T14:06:26;48.50;;;27.45;;
25824;SDS011;13658;44.534;18.694;2024-03-07T14:09:30;49.20;;;28.02;;
25824;SDS011;13658;44.534;18.694;2024-03-07T14:27:01;45.17;;;27.58;;
25824;SDS011;13658;44.534;18.694;2024-03-07T14:32:13;49.25;;;28.95;;
25824;SDS011;13658;44.534;18.694;2024-03-07T14:37:55;48.13;;;26.80;;
25824;SDS011;13658;44.534;18.694;2024-03-07T14:40:41;44.03;;;25.38;;
25824;SDS011;13658;44.534;18.694;2024-03-07T14:43:09;48.83;;;28.77;;
25824;SDS011;13658;44.534;18.694;2024-03-07T14:45:36;41.17;;;25.52;;
25824;SDS011;13658;44.534;18.694;2024-03-07T14:48:05;44.20;;;27.17;;
25824;SDS011;13658;44.534;18.694;2024-03-07T14:50:35;53.35;;;29.75;;
25824;SDS011;13658;44.534;18.694;2024-03-07T14:53:03;54.47;;;30.77;;
25824;SDS011;13658;44.534;18.694;2024-03-07T14:55:30;52.40;;;30.33;;
25824;SDS011;13658;44.534;18.694;2024-03-07T14:57:57;46.05;;;27.75;;
25824;SDS011;13658;44.534;18.694;2024-03-07T15:00:24;52.60;;;30.52;;